createdAt,value
2019-05-02T00:01:54.555Z,16.95
2019-05-02T00:04:24.468Z,16.87
2019-05-02T00:07:08.302Z,16.74
2019-05-02T00:09:47.350Z,16.86
2019-05-02T00:12:11.816Z,16.61
2019-05-02T00:14:42.089Z,16.68
2019-05-02T00:17:11.681Z,16.61
2019-05-02T00:19:45.163Z,16.71
2019-05-02T00:22:17.114Z,16.67
2019-05-02T00:24:44.233Z,16.31
2019-05-02T00:27:14.188Z,16.49
2019-05-02T00:29:43.823Z,16.65
2019-05-02T00:32:13.537Z,16.57
2019-05-02T00:34:43.145Z,16.39
2019-05-02T00:37:12.808Z,16.33
2019-05-02T00:39:45.219Z,16.35
2019-05-02T00:42:17.569Z,16.16
2019-05-02T00:44:46.909Z,16.18
2019-05-02T00:47:30.453Z,15.95
2019-05-02T00:50:00.299Z,16.11
2019-05-02T00:52:32.898Z,15.93
2019-05-02T00:55:01.419Z,16.10
2019-05-02T00:57:30.929Z,15.95
2019-05-02T01:00:00.557Z,15.87
2019-05-02T01:02:40.668Z,15.72
2019-05-02T01:05:11.450Z,15.63
2019-05-02T01:07:40.999Z,15.64
2019-05-02T01:10:10.801Z,15.76
2019-05-02T01:12:44.499Z,15.70
2019-05-02T01:15:12.597Z,15.86
2019-05-02T01:17:42.329Z,15.81
2019-05-02T01:20:12.264Z,15.87
2019-05-02T01:22:41.996Z,15.78
2019-05-02T01:25:15.955Z,15.69
2019-05-02T01:27:48.686Z,15.64
2019-05-02T01:30:37.180Z,15.55
2019-05-02T01:33:23.497Z,15.42
2019-05-02T01:36:08.192Z,15.56
2019-05-02T01:38:41.679Z,15.35
2019-05-02T01:41:11.578Z,15.40
2019-05-02T01:43:41.322Z,15.53
2019-05-02T01:46:11.060Z,15.50
2019-05-02T01:48:45.629Z,15.62
2019-05-02T01:51:12.216Z,15.38
2019-05-02T01:53:41.701Z,15.40
2019-05-02T01:56:11.761Z,15.47
2019-05-02T01:58:41.359Z,15.37
2019-05-02T02:01:10.957Z,15.30
2019-05-02T02:03:45.570Z,15.40
2019-05-02T02:06:11.919Z,15.48
2019-05-02T02:08:41.566Z,15.77
2019-05-02T02:11:11.334Z,15.80
2019-05-02T02:13:41.100Z,15.70
2019-05-02T02:16:10.755Z,15.88
2019-05-02T02:18:46.065Z,15.59
2019-05-02T02:21:32.594Z,15.43
2019-05-02T02:24:12.273Z,15.41
2019-05-02T02:26:43.550Z,15.67
2019-05-02T02:29:13.305Z,15.75
2019-05-02T02:31:46.381Z,15.80
2019-05-02T02:34:14.310Z,15.58
2019-05-02T02:36:43.947Z,15.57
2019-05-02T02:39:16.793Z,15.61
2019-05-02T02:41:51.240Z,15.54
2019-05-02T02:44:39.929Z,15.56
2019-05-02T02:47:12.089Z,15.39
2019-05-02T02:49:37.928Z,15.06
2019-05-02T02:52:07.549Z,15.00
2019-05-02T02:54:43.545Z,14.80
2019-05-02T02:57:20.543Z,14.72
2019-05-02T02:59:39.911Z,14.86
2019-05-02T03:02:11.861Z,14.95
2019-05-02T03:04:43.936Z,14.87
2019-05-02T03:07:24.054Z,14.90
2019-05-02T03:09:43.634Z,14.93
2019-05-02T03:12:36.168Z,15.00
2019-05-02T03:15:03.491Z,15.12
2019-05-02T03:17:33.169Z,15.21
2019-05-02T03:20:03.835Z,15.23
2019-05-02T03:22:35.081Z,15.09
2019-05-02T03:25:05.254Z,15.15
2019-05-02T03:27:37.506Z,15.29
2019-05-02T03:30:06.639Z,15.36
2019-05-02T03:32:36.677Z,15.35
2019-05-02T03:35:06.351Z,15.29
2019-05-02T03:37:36.187Z,15.27
2019-05-02T03:40:06.167Z,15.07
2019-05-02T03:42:43.660Z,15.05
2019-05-02T03:45:07.354Z,15.06
2019-05-02T03:47:43.671Z,15.02
2019-05-02T03:50:09.517Z,14.85
2019-05-02T03:52:43.965Z,14.88
2019-05-02T03:55:10.885Z,14.74
2019-05-02T03:57:42.122Z,14.73
2019-05-02T04:00:21.348Z,14.77
2019-05-02T04:02:43.653Z,14.89
2019-05-02T04:05:13.322Z,14.94
2019-05-02T04:07:42.992Z,14.97
2019-05-02T04:10:19.641Z,14.97
2019-05-02T04:12:45.892Z,14.91
2019-05-02T04:15:15.610Z,14.93
2019-05-02T04:17:45.187Z,14.94
2019-05-02T04:20:14.753Z,15.05
2019-05-02T04:22:48.948Z,15.03
2019-05-02T04:25:15.637Z,14.96
2019-05-02T04:27:45.163Z,14.96
2019-05-02T04:30:14.687Z,14.90
2019-05-02T04:32:49.913Z,15.00
2019-05-02T04:35:15.571Z,14.36
2019-05-02T04:37:45.237Z,14.65
2019-05-02T04:40:14.712Z,14.74
2019-05-02T04:42:44.288Z,14.67
2019-05-02T04:45:26.327Z,14.55
2019-05-02T04:47:54.899Z,14.75
2019-05-02T04:50:18.475Z,14.74
2019-05-02T04:52:53.630Z,14.88
2019-05-02T04:55:25.955Z,15.00
2019-05-02T04:57:51.132Z,15.24
2019-05-02T05:00:28.592Z,15.29
2019-05-02T05:02:58.119Z,15.34
2019-05-02T05:05:31.101Z,15.62
2019-05-02T05:07:59.077Z,15.83
2019-05-02T05:10:40.374Z,16.06
2019-05-02T05:13:00.341Z,16.29
2019-05-02T05:15:38.311Z,16.50
2019-05-02T05:18:04.517Z,16.51
2019-05-02T05:20:32.833Z,16.76
2019-05-02T05:23:02.383Z,17.02
2019-05-02T05:25:37.869Z,17.21
2019-05-02T05:28:09.082Z,17.37
2019-05-02T05:30:45.198Z,17.64
2019-05-02T05:33:10.445Z,17.90
2019-05-02T05:35:43.332Z,18.07
2019-05-02T05:38:11.467Z,18.17
2019-05-02T05:40:41.070Z,18.27
2019-05-02T05:43:14.400Z,18.46
2019-05-02T05:45:53.560Z,18.71
2019-05-02T05:48:13.866Z,18.78
2019-05-02T05:50:43.579Z,18.65
2019-05-02T05:53:17.057Z,18.64
2019-05-02T05:55:44.392Z,18.78
2019-05-02T05:58:15.749Z,18.91
2019-05-02T06:00:45.828Z,19.27
2019-05-02T06:03:17.952Z,19.67
2019-05-02T06:05:47.779Z,19.93
2019-05-02T06:08:18.477Z,20.22
2019-05-02T06:10:48.589Z,20.51
2019-05-02T06:13:18.142Z,20.57
2019-05-02T06:15:47.653Z,21.01
2019-05-02T06:18:17.166Z,21.31
2019-05-02T06:20:46.799Z,21.57
2019-05-02T06:23:16.353Z,21.87
2019-05-02T06:25:45.873Z,22.15
2019-05-02T06:28:15.415Z,22.20
2019-05-02T06:30:44.883Z,21.62
2019-05-02T06:33:14.465Z,21.65
2019-05-02T06:35:43.979Z,21.01
2019-05-02T06:38:13.507Z,21.08
2019-05-02T06:40:44.648Z,21.17
2019-05-02T06:43:14.355Z,21.77
2019-05-02T06:45:43.934Z,21.41
2019-05-02T06:48:17.504Z,20.99
2019-05-02T06:50:44.770Z,20.47
2019-05-02T06:53:14.322Z,19.78
2019-05-02T06:55:43.829Z,19.21
2019-05-02T06:58:13.295Z,19.01
2019-05-02T07:00:56.485Z,18.75
2019-05-02T07:03:14.181Z,18.69
2019-05-02T07:05:43.680Z,18.61
2019-05-02T07:08:14.031Z,18.51
2019-05-02T07:10:45.024Z,18.54
2019-05-02T07:13:15.416Z,18.67
2019-05-02T07:16:10.409Z,18.65
2019-05-02T07:18:47.629Z,18.42
2019-05-02T07:21:17.417Z,18.41
2019-05-02T07:23:48.730Z,18.62
2019-05-02T07:26:21.004Z,18.57
2019-05-02T07:28:49.177Z,18.76
2019-05-02T07:31:18.754Z,18.82
2019-05-02T07:33:48.243Z,18.92
2019-05-02T07:36:17.834Z,19.37
2019-05-02T07:38:47.402Z,19.60
2019-05-02T07:41:16.909Z,19.37
2019-05-02T07:43:46.413Z,19.63
2019-05-02T07:46:16.222Z,20.20
2019-05-02T07:48:48.976Z,21.72
2019-05-02T07:51:21.312Z,22.55
2019-05-02T07:53:49.808Z,22.69
2019-05-02T07:56:19.343Z,23.75
2019-05-02T07:58:48.818Z,25.18
2019-05-02T08:01:18.332Z,26.41
2019-05-02T08:03:47.790Z,26.97
2019-05-02T08:06:17.588Z,27.62
2019-05-02T08:08:47.488Z,28.36
2019-05-02T08:11:17.378Z,28.21
2019-05-02T08:13:49.569Z,28.75
2019-05-02T08:16:22.382Z,26.86
2019-05-02T08:18:49.917Z,28.61
2019-05-02T08:21:19.701Z,29.00
2019-05-02T08:23:49.204Z,28.89
2019-05-02T08:26:21.793Z,29.40
2019-05-02T08:28:55.290Z,29.73
2019-05-02T08:31:24.993Z,30.67
2019-05-02T08:33:54.846Z,31.25
2019-05-02T08:36:24.308Z,30.83
2019-05-02T08:38:55.389Z,31.34
2019-05-02T08:41:25.002Z,31.87
2019-05-02T08:43:54.504Z,31.30
2019-05-02T08:46:24.004Z,31.42
2019-05-02T08:48:53.830Z,31.78
2019-05-02T08:51:23.594Z,31.33
2019-05-02T08:53:56.854Z,32.08
2019-05-02T08:56:24.500Z,33.17
2019-05-02T08:58:54.000Z,33.36
2019-05-02T09:01:34.619Z,33.83
2019-05-02T09:03:56.924Z,33.67
2019-05-02T09:06:26.761Z,32.84
2019-05-02T09:08:56.277Z,32.19
2019-05-02T09:11:25.731Z,33.11
2019-05-02T09:13:55.295Z,33.32
2019-05-02T09:16:28.635Z,33.45
2019-05-02T09:18:56.142Z,32.15
2019-05-02T09:21:29.799Z,31.90
2019-05-02T09:23:56.798Z,32.00
2019-05-02T09:26:35.202Z,31.57
2019-05-02T09:29:01.696Z,32.07
2019-05-02T09:31:28.838Z,31.31
2019-05-02T09:33:58.348Z,30.93
2019-05-02T09:36:27.841Z,28.90
2019-05-02T09:38:57.779Z,29.19
2019-05-02T09:41:34.474Z,28.23
2019-05-02T09:43:58.465Z,27.67
2019-05-02T09:46:28.019Z,27.79
2019-05-02T09:49:04.279Z,28.47
2019-05-02T09:51:28.769Z,28.28
2019-05-02T09:54:02.717Z,28.30
2019-05-02T09:56:29.423Z,28.36
2019-05-02T09:59:04.814Z,27.37
2019-05-02T10:01:36.361Z,27.77
2019-05-02T10:04:06.128Z,27.58
2019-05-02T10:06:35.631Z,28.13
2019-05-02T10:09:06.516Z,27.57
2019-05-02T10:11:36.068Z,25.74
2019-05-02T10:14:05.973Z,26.72
2019-05-02T10:16:35.464Z,24.30
2019-05-02T10:19:09.406Z,24.12
2019-05-02T10:21:36.105Z,23.48
2019-05-02T10:24:05.553Z,24.35
2019-05-02T10:26:35.115Z,24.37
2019-05-02T10:29:04.623Z,25.59
2019-05-02T10:31:37.692Z,23.74
2019-05-02T10:34:08.506Z,24.61
2019-05-02T10:36:37.030Z,26.48
2019-05-02T10:39:07.907Z,26.77
2019-05-02T10:41:39.310Z,26.49
2019-05-02T10:44:09.017Z,25.53
2019-05-02T10:46:57.374Z,25.96
2019-05-02T10:49:52.711Z,24.80
2019-05-02T10:52:29.432Z,25.45
2019-05-02T10:54:53.611Z,25.48
2019-05-02T10:57:23.562Z,25.51
2019-05-02T10:59:56.049Z,25.63
2019-05-02T11:02:56.910Z,24.46
2019-05-02T11:05:26.828Z,25.36
2019-05-02T11:07:56.971Z,26.13
2019-05-02T11:10:27.434Z,26.14
2019-05-02T11:13:15.773Z,24.93
2019-05-02T11:16:12.441Z,24.96
2019-05-02T11:18:53.277Z,24.10
2019-05-02T11:21:23.012Z,25.23
2019-05-02T11:23:52.800Z,26.44
2019-05-02T11:26:25.150Z,27.47
2019-05-02T11:28:53.623Z,27.96
2019-05-02T11:31:23.195Z,27.65
2019-05-02T11:33:53.007Z,27.46
2019-05-02T11:36:22.569Z,27.39
2019-05-02T11:39:00.051Z,27.91
2019-05-02T11:41:23.229Z,27.79
2019-05-02T11:43:55.739Z,28.73
2019-05-02T11:46:23.929Z,29.57
2019-05-02T11:48:58.093Z,30.07
2019-05-02T11:51:24.690Z,29.45
2019-05-02T11:53:54.279Z,29.04
2019-05-02T11:56:23.985Z,28.74
2019-05-02T11:58:53.714Z,28.00
2019-05-02T12:01:35.504Z,27.97
2019-05-02T12:03:54.504Z,28.44
2019-05-02T12:06:23.966Z,28.86
2019-05-02T12:08:53.514Z,29.15
2019-05-02T12:11:23.171Z,29.25
2019-05-02T12:13:56.774Z,29.42
2019-05-02T12:16:24.289Z,28.90
2019-05-02T12:19:07.761Z,29.02
2019-05-02T12:21:24.968Z,28.65
2019-05-02T12:23:54.465Z,28.66
2019-05-02T12:26:23.995Z,28.49
2019-05-02T12:28:53.580Z,27.63
2019-05-02T12:31:32.156Z,27.69
2019-05-02T12:34:03.652Z,28.59
2019-05-02T12:36:33.534Z,29.40
2019-05-02T12:39:03.310Z,29.57
2019-05-02T12:41:33.238Z,29.34
2019-05-02T12:44:02.790Z,29.43
2019-05-02T12:46:32.343Z,29.73
2019-05-02T12:49:02.856Z,30.35
2019-05-02T12:51:32.573Z,30.32
2019-05-02T12:54:02.485Z,30.32
2019-05-02T12:56:32.513Z,30.07
2019-05-02T12:59:02.525Z,29.72
2019-05-02T13:01:33.058Z,30.38
2019-05-02T13:04:07.955Z,30.71
2019-05-02T13:06:37.497Z,30.46
2019-05-02T13:09:09.943Z,30.63
2019-05-02T13:11:52.306Z,30.10
2019-05-02T13:14:25.330Z,29.86
2019-05-02T13:17:01.200Z,29.33
2019-05-02T13:19:37.078Z,29.47
2019-05-02T13:22:07.676Z,30.31
2019-05-02T13:24:46.886Z,30.53
2019-05-02T13:27:16.060Z,30.34
2019-05-02T13:29:46.088Z,29.61
2019-05-02T13:32:24.632Z,29.46
2019-05-02T13:35:12.887Z,29.07
2019-05-02T13:37:43.188Z,29.42
2019-05-02T13:40:17.785Z,29.43
2019-05-02T13:42:47.247Z,30.05
2019-05-02T13:45:27.899Z,30.00
2019-05-02T13:47:57.498Z,29.96
2019-05-02T13:50:27.090Z,29.56
2019-05-02T13:52:57.994Z,29.26
2019-05-02T13:55:32.065Z,28.52
2019-05-02T13:58:02.331Z,28.15
2019-05-02T14:00:46.676Z,27.98
2019-05-02T14:03:16.276Z,27.79
2019-05-02T14:05:51.134Z,27.37
2019-05-02T14:08:37.275Z,27.18
2019-05-02T14:11:24.599Z,26.43
2019-05-02T14:13:54.145Z,26.60
2019-05-02T14:16:23.534Z,27.67
2019-05-02T14:18:53.108Z,27.97
2019-05-02T14:21:23.067Z,28.44
2019-05-02T14:23:52.417Z,28.47
2019-05-02T14:26:30.286Z,28.45
2019-05-02T14:28:53.302Z,27.83
2019-05-02T14:31:23.364Z,27.61
2019-05-02T14:34:12.123Z,28.02
2019-05-02T14:36:42.357Z,28.44
2019-05-02T14:39:12.090Z,28.21
2019-05-02T14:41:44.497Z,27.93
2019-05-02T14:44:12.658Z,27.56
2019-05-02T14:46:42.570Z,27.53
2019-05-02T14:49:12.145Z,27.27
2019-05-02T14:51:41.914Z,26.98
2019-05-02T14:54:12.078Z,26.92
2019-05-02T14:56:52.396Z,26.67
2019-05-02T14:59:22.815Z,25.37
2019-05-02T15:01:57.876Z,26.07
2019-05-02T15:04:26.745Z,26.33
2019-05-02T15:06:56.331Z,25.32
2019-05-02T15:09:27.027Z,25.77
2019-05-02T15:12:02.302Z,25.49
2019-05-02T15:14:32.962Z,25.21
2019-05-02T15:17:02.931Z,24.85
2019-05-02T15:19:33.135Z,25.03
2019-05-02T15:22:02.908Z,25.94
2019-05-02T15:24:36.156Z,26.47
2019-05-02T15:27:11.782Z,26.75
2019-05-02T15:29:35.055Z,26.48
2019-05-02T15:32:37.259Z,26.35
2019-05-02T15:35:26.914Z,26.43
2019-05-02T15:38:01.790Z,26.51
2019-05-02T15:43:04.487Z,26.05
2019-05-02T15:45:32.070Z,25.65
2019-05-02T15:48:02.624Z,25.51
2019-05-02T15:50:32.643Z,25.66
2019-05-02T15:53:12.534Z,25.61
2019-05-02T15:55:43.859Z,25.32
2019-05-02T15:58:22.943Z,25.00
2019-05-02T16:00:56.502Z,25.06
2019-05-02T16:03:45.754Z,25.03
2019-05-02T16:06:16.460Z,25.44
2019-05-02T16:08:47.458Z,25.80
2019-05-02T16:11:19.556Z,25.78
2019-05-02T16:13:52.794Z,25.59
2019-05-02T16:16:22.434Z,25.45
2019-05-02T16:18:52.600Z,25.27
2019-05-02T16:21:32.604Z,25.17
2019-05-02T16:24:22.974Z,25.28
2019-05-02T16:26:54.123Z,25.40
2019-05-02T16:29:28.434Z,25.58
2019-05-02T16:32:05.558Z,25.42
2019-05-02T16:34:52.073Z,25.42
2019-05-02T16:37:22.546Z,25.15
2019-05-02T16:39:52.210Z,24.82
2019-05-02T16:42:22.755Z,24.70
2019-05-02T16:44:54.702Z,24.29
2019-05-02T16:47:24.073Z,24.45
2019-05-02T16:49:56.386Z,24.29
2019-05-02T16:52:25.006Z,24.18
2019-05-02T16:54:54.659Z,24.16
2019-05-02T16:57:24.240Z,24.18
2019-05-02T17:00:01.128Z,24.25
2019-05-02T17:02:25.221Z,23.97
2019-05-02T17:04:54.897Z,23.76
2019-05-02T17:07:43.535Z,23.81
2019-05-02T17:10:34.825Z,24.04
2019-05-02T17:13:03.375Z,24.07
2019-05-02T17:15:35.346Z,23.90
2019-05-02T17:18:12.880Z,23.94
2019-05-02T17:20:37.145Z,24.06
2019-05-02T17:23:07.710Z,24.03
2019-05-02T17:25:37.492Z,24.01
2019-05-02T17:28:10.502Z,24.00
2019-05-02T17:30:40.407Z,23.83
2019-05-02T17:33:12.775Z,23.49
2019-05-02T17:35:41.639Z,23.70
2019-05-02T17:38:12.186Z,23.49
2019-05-02T17:40:42.318Z,23.42
2019-05-02T17:43:11.917Z,23.47
2019-05-02T17:45:41.560Z,22.94
2019-05-02T17:48:16.191Z,23.17
2019-05-02T17:51:17.082Z,22.99
2019-05-02T17:53:49.769Z,23.00
2019-05-02T17:56:22.532Z,22.96
2019-05-02T17:58:56.593Z,22.70
2019-05-02T18:01:33.304Z,22.74
2019-05-02T18:03:58.903Z,22.49
2019-05-02T18:06:32.952Z,22.58
2019-05-02T18:08:59.894Z,22.69
2019-05-02T18:11:29.782Z,22.68
2019-05-02T18:14:02.635Z,22.58
2019-05-02T18:16:32.410Z,22.51
2019-05-02T18:19:02.102Z,22.24
2019-05-02T18:21:32.321Z,22.07
2019-05-02T18:24:05.946Z,21.82
2019-05-02T18:26:33.437Z,21.73
2019-05-02T18:29:06.800Z,21.77
2019-05-02T18:31:34.787Z,21.45
2019-05-02T18:34:05.836Z,20.70
2019-05-02T18:36:35.501Z,20.59
2019-05-02T18:39:06.513Z,20.37
2019-05-02T18:41:37.412Z,20.17
2019-05-02T18:44:07.528Z,19.69
2019-05-02T18:46:41.447Z,19.85
2019-05-02T18:49:08.577Z,19.42
2019-05-02T18:51:38.054Z,19.21
2019-05-02T18:54:08.644Z,18.94
2019-05-02T18:56:42.829Z,18.60
2019-05-02T18:59:14.179Z,18.65
2019-05-02T19:01:42.748Z,18.71
2019-05-02T19:04:13.210Z,18.59
2019-05-02T19:06:42.852Z,18.54
2019-05-02T19:09:12.872Z,18.83
2019-05-02T19:11:44.093Z,18.73
2019-05-02T19:14:16.568Z,18.63
2019-05-02T19:16:45.073Z,18.31
2019-05-02T19:19:14.727Z,18.37
2019-05-02T19:21:44.365Z,18.06
2019-05-02T19:24:14.019Z,17.84
2019-05-02T19:26:49.155Z,17.72
2019-05-02T19:29:22.176Z,17.72
2019-05-02T19:31:53.442Z,17.97
2019-05-02T19:34:26.851Z,17.89
2019-05-02T19:36:58.144Z,17.83
2019-05-02T19:39:26.419Z,17.63
2019-05-02T19:41:56.004Z,17.68
2019-05-02T19:44:28.783Z,17.38
2019-05-02T19:46:56.738Z,17.34
2019-05-02T19:49:26.407Z,17.21
2019-05-02T19:51:58.121Z,17.30
2019-05-02T19:54:33.481Z,17.16
2019-05-02T19:56:58.547Z,17.12
2019-05-02T19:59:29.665Z,17.15
2019-05-02T20:02:02.536Z,17.17
2019-05-02T20:04:32.647Z,16.94
2019-05-02T20:07:02.133Z,16.75
2019-05-02T20:09:31.939Z,16.76
2019-05-02T20:12:05.964Z,16.80
2019-05-02T20:14:32.983Z,16.68
2019-05-02T20:17:02.739Z,16.60
2019-05-02T20:19:34.973Z,16.35
2019-05-02T20:22:22.565Z,16.43
2019-05-02T20:24:58.302Z,16.34
2019-05-02T20:27:27.901Z,16.14
2019-05-02T20:29:56.415Z,16.10
2019-05-02T20:32:26.423Z,15.98
2019-05-02T20:34:56.438Z,15.78
2019-05-02T20:37:26.346Z,15.72
2019-05-02T20:39:56.073Z,15.70
2019-05-02T20:42:26.068Z,15.57
2019-05-02T20:44:56.313Z,15.48
2019-05-02T20:47:26.331Z,15.57
2019-05-02T20:49:56.167Z,15.53
2019-05-02T20:52:26.153Z,15.55
2019-05-02T20:54:56.271Z,15.75
2019-05-02T20:57:26.187Z,15.51
2019-05-02T20:59:56.026Z,15.60
2019-05-02T21:02:26.125Z,15.47
2019-05-02T21:04:55.759Z,15.65
2019-05-02T21:07:35.560Z,15.59
2019-05-02T21:10:19.007Z,15.59
2019-05-02T21:12:48.778Z,15.56
2019-05-02T21:15:18.426Z,15.43
2019-05-02T21:17:48.002Z,15.41
2019-05-02T21:20:17.639Z,15.55
2019-05-02T21:22:47.324Z,15.59
2019-05-02T21:25:16.891Z,15.51
2019-05-02T21:27:46.409Z,15.53
2019-05-02T21:30:17.540Z,15.57
2019-05-02T21:32:47.060Z,15.59
2019-05-02T21:35:16.647Z,16.01
2019-05-02T21:37:47.373Z,16.10
2019-05-02T21:40:16.968Z,16.15
2019-05-02T21:42:46.729Z,16.25
2019-05-02T21:45:16.291Z,16.10
2019-05-02T21:47:45.990Z,15.85
2019-05-02T21:50:47.546Z,16.09
2019-05-02T21:53:41.576Z,15.90
2019-05-02T21:56:21.618Z,15.95
2019-05-02T21:59:12.105Z,15.99
2019-05-02T22:01:48.544Z,16.15
2019-05-02T22:04:18.207Z,16.30
2019-05-02T22:06:47.965Z,16.33
2019-05-02T22:09:17.544Z,16.40
2019-05-02T22:11:47.267Z,16.30
2019-05-02T22:14:16.961Z,16.68
2019-05-02T22:16:46.633Z,16.74
2019-05-02T22:19:16.258Z,16.46
2019-05-02T22:21:45.822Z,16.60
2019-05-02T22:24:15.527Z,16.65
2019-05-02T22:26:45.159Z,16.64
2019-05-02T22:29:14.818Z,16.63
2019-05-02T22:31:44.484Z,16.36
2019-05-02T22:34:14.133Z,16.42
2019-05-02T22:36:43.910Z,16.56
2019-05-02T22:39:31.785Z,16.55
2019-05-02T22:42:04.574Z,16.68
2019-05-02T22:44:33.445Z,16.59
2019-05-02T22:47:03.124Z,16.59
2019-05-02T22:49:32.852Z,16.69
2019-05-02T22:52:02.339Z,16.72
2019-05-02T22:54:33.944Z,16.82
2019-05-02T22:57:03.196Z,16.74
2019-05-02T22:59:32.819Z,16.75
2019-05-02T23:02:02.379Z,16.78
2019-05-02T23:04:32.499Z,16.79
2019-05-02T23:07:02.562Z,16.82
2019-05-02T23:09:32.163Z,16.61
2019-05-02T23:12:02.810Z,16.38
2019-05-02T23:14:32.681Z,16.29
2019-05-02T23:17:02.454Z,16.20
2019-05-02T23:19:32.149Z,16.27
2019-05-02T23:22:02.156Z,16.38
2019-05-02T23:24:59.056Z,16.54
2019-05-02T23:28:02.662Z,16.62
2019-05-02T23:30:32.347Z,16.35
2019-05-02T23:33:02.348Z,16.46
2019-05-02T23:35:34.360Z,16.49
2019-05-02T23:38:04.181Z,16.51
2019-05-02T23:40:33.857Z,16.64
2019-05-02T23:43:03.515Z,16.65
2019-05-02T23:45:32.989Z,16.79
2019-05-02T23:48:02.631Z,16.72
2019-05-02T23:50:32.279Z,16.79
2019-05-02T23:53:02.372Z,16.87
2019-05-02T23:55:33.802Z,16.95
2019-05-02T23:58:03.148Z,16.94
